Time;durP1;ratioP1;P1;durP2;ratioP2;P2;SDS_P1;SDS_P2;PMS_P1;PMS_P2;Temp;Humidity;BMP_temperature;BMP_pressure;BME280_temperature;BME280_humidity;BME280_pressure;Samples;Min_cycle;Max_cycle;Signal;HPM_P1;HPM_P2
2022/03/28 00:00:19;;;;;;;26.07;17.43;;;;;;;;;;5055542;28;20288;-67
2022/03/28 00:02:45;;;;;;;24.53;15.33;;;;;;;;;;5037026;28;20202;-66
2022/03/28 00:05:13;;;;;;;23.13;16.33;;;;;;;;;;5037459;28;20197;-66
2022/03/28 00:07:40;;;;;;;26.93;17.20;;;;;;;;;;5037059;28;20178;-66
2022/03/28 00:10:06;;;;;;;23.53;16.53;;;;;;;;;;5036978;28;20555;-66
2022/03/28 00:12:32;;;;;;;27.43;18.27;;;;;;;;;;5036988;28;20209;-66
2022/03/28 00:14:58;;;;;;;26.57;16.07;;;;;;;;;;5054725;28;20655;-66
2022/03/28 00:17:24;;;;;;;23.60;16.50;;;;;;;;;;5036826;28;20673;-66
2022/03/28 00:19:50;;;;;;;26.90;16.83;;;;;;;;;;5054575;28;20178;-66
2022/03/28 00:22:16;;;;;;;26.13;17.43;;;;;;;;;;5036646;28;20199;-66
2022/03/28 00:24:42;;;;;;;25.10;17.43;;;;;;;;;;5036722;28;20650;-66
2022/03/28 00:27:08;;;;;;;26.50;16.77;;;;;;;;;;5054566;28;20647;-66
2022/03/28 00:29:34;;;;;;;25.83;17.00;;;;;;;;;;5036660;28;20174;-66
2022/03/28 00:32:00;;;;;;;26.33;17.00;;;;;;;;;;5036436;28;20206;-64
2022/03/28 00:34:27;;;;;;;27.83;17.73;;;;;;;;;;5054268;28;20261;-66
2022/03/28 00:36:53;;;;;;;25.90;16.63;;;;;;;;;;5054203;28;20170;-64
2022/03/28 00:39:19;;;;;;;30.47;17.10;;;;;;;;;;5036340;28;20186;-66
2022/03/28 00:41:46;;;;;;;27.27;18.13;;;;;;;;;;5054145;28;20674;-66
2022/03/28 00:44:12;;;;;;;28.33;17.30;;;;;;;;;;5036368;28;20265;-66
2022/03/28 00:46:39;;;;;;;27.73;17.93;;;;;;;;;;5036321;28;20263;-66
2022/03/28 00:49:05;;;;;;;25.93;17.57;;;;;;;;;;5036519;28;20175;-64
2022/03/28 00:51:31;;;;;;;27.60;18.63;;;;;;;;;;5054635;28;20187;-65
2022/03/28 00:53:58;;;;;;;27.17;18.17;;;;;;;;;;5036283;28;20186;-64
2022/03/28 00:56:24;;;;;;;28.60;18.93;;;;;;;;;;5053973;28;20228;-64
2022/03/28 00:58:50;;;;;;;27.90;18.53;;;;;;;;;;5036039;28;20186;-64
2022/03/28 01:01:16;;;;;;;32.80;18.83;;;;;;;;;;5036239;28;20294;-65
2022/03/28 01:03:42;;;;;;;31.40;19.07;;;;;;;;;;5053197;28;20273;-64
2022/03/28 01:06:08;;;;;;;29.07;18.83;;;;;;;;;;5053641;28;20226;-65
2022/03/28 01:08:34;;;;;;;29.83;18.50;;;;;;;;;;5053860;28;20651;-65
2022/03/28 01:11:03;;;;;;;29.33;18.93;;;;;;;;;;5053904;28;20178;-64
2022/03/28 01:13:30;;;;;;;26.60;18.30;;;;;;;;;;5035717;28;20245;-65
2022/03/28 01:15:56;;;;;;;30.43;18.83;;;;;;;;;;5035673;28;20174;-64
2022/03/28 01:18:22;;;;;;;30.27;19.13;;;;;;;;;;5053501;28;20205;-64
2022/03/28 01:20:48;;;;;;;30.27;18.07;;;;;;;;;;5053437;28;20243;-65
2022/03/28 01:23:14;;;;;;;29.90;18.63;;;;;;;;;;5035547;28;20202;-65
2022/03/28 01:25:45;;;;;;;28.13;19.07;;;;;;;;;;5035560;28;20189;-64
2022/03/28 01:28:11;;;;;;;28.00;18.10;;;;;;;;;;5053720;28;20163;-64
2022/03/28 01:30:37;;;;;;;30.73;18.60;;;;;;;;;;5035958;28;20193;-65
2022/03/28 01:33:03;;;;;;;31.60;20.43;;;;;;;;;;5035387;28;20732;-64
2022/03/28 01:35:33;;;;;;;32.03;19.77;;;;;;;;;;5053397;28;20174;-65
2022/03/28 01:38:00;;;;;;;30.37;18.43;;;;;;;;;;5053250;28;20179;-64
2022/03/28 01:40:27;;;;;;;31.00;19.00;;;;;;;;;;5035354;28;20280;-65
2022/03/28 01:42:53;;;;;;;30.00;18.57;;;;;;;;;;5053125;28;20190;-64
2022/03/28 01:45:19;;;;;;;29.67;18.63;;;;;;;;;;5035292;28;20181;-65
2022/03/28 01:47:46;;;;;;;31.77;18.10;;;;;;;;;;5053038;28;20224;-65
2022/03/28 01:50:12;;;;;;;31.80;18.27;;;;;;;;;;5053155;28;20178;-65
2022/03/28 01:52:38;;;;;;;30.20;17.70;;;;;;;;;;5052997;28;20221;-65
2022/03/28 01:55:04;;;;;;;29.07;19.07;;;;;;;;;;5053035;28;20178;-65
2022/03/28 01:57:30;;;;;;;27.90;17.57;;;;;;;;;;5035142;28;20182;-64
2022/03/28 01:59:56;;;;;;;28.40;19.10;;;;;;;;;;5035151;28;20186;-65
2022/03/28 02:02:23;;;;;;;28.63;18.00;;;;;;;;;;5035084;28;20206;-65
2022/03/28 02:04:49;;;;;;;33.23;19.07;;;;;;;;;;5035026;28;20184;-65
2022/03/28 02:07:16;;;;;;;31.00;19.07;;;;;;;;;;5053176;28;20175;-65
2022/03/28 02:09:42;;;;;;;28.57;18.17;;;;;;;;;;5053183;28;20194;-65
2022/03/28 02:12:08;;;;;;;31.43;17.80;;;;;;;;;;5035495;28;20244;-64
2022/03/28 02:14:34;;;;;;;34.00;18.40;;;;;;;;;;5053911;28;20232;-65
2022/03/28 02:17:00;;;;;;;28.93;18.43;;;;;;;;;;5056824;28;20182;-64
2022/03/28 02:19:26;;;;;;;30.77;18.83;;;;;;;;;;5056776;28;20555;-65
2022/03/28 02:21:52;;;;;;;31.83;19.17;;;;;;;;;;5038816;28;20264;-65
2022/03/28 02:24:18;;;;;;;31.93;20.73;;;;;;;;;;5056967;28;20257;-65
2022/03/28 02:26:44;;;;;;;29.83;18.73;;;;;;;;;;5040501;28;20185;-65
2022/03/28 02:29:09;;;;;;;33.40;19.80;;;;;;;;;;5061032;28;20186;-65
2022/03/28 02:31:35;;;;;;;34.50;20.93;;;;;;;;;;5061338;28;20187;-65
2022/03/28 02:34:01;;;;;;;33.30;20.57;;;;;;;;;;5060621;28;20186;-65
2022/03/28 02:36:27;;;;;;;34.47;18.80;;;;;;;;;;5059216;28;20174;-66
2022/03/28 02:38:53;;;;;;;31.13;19.10;;;;;;;;;;5057569;28;20181;-65
2022/03/28 02:41:19;;;;;;;34.50;19.43;;;;;;;;;;5057081;28;20203;-65
2022/03/28 02:43:45;;;;;;;30.27;18.77;;;;;;;;;;5056647;28;20287;-65
2022/03/28 02:46:11;;;;;;;35.27;19.07;;;;;;;;;;5056775;28;20233;-65
2022/03/28 02:48:37;;;;;;;34.10;20.13;;;;;;;;;;5056586;28;20677;-66
2022/03/28 02:51:03;;;;;;;37.00;20.67;;;;;;;;;;5038562;28;20182;-65
2022/03/28 02:53:29;;;;;;;32.73;20.27;;;;;;;;;;5056210;28;20214;-65
2022/03/28 02:55:55;;;;;;;32.50;19.93;;;;;;;;;;5056206;28;20277;-65
2022/03/28 02:58:21;;;;;;;33.97;19.77;;;;;;;;;;5056442;28;20178;-65
2022/03/28 03:00:47;;;;;;;33.17;19.67;;;;;;;;;;5038273;28;20206;-65
2022/03/28 03:03:13;;;;;;;33.00;20.50;;;;;;;;;;5055989;28;20194;-65
2022/03/28 03:05:39;;;;;;;35.20;20.53;;;;;;;;;;5056085;28;20714;-65
2022/03/28 03:08:06;;;;;;;35.50;20.47;;;;;;;;;;5038170;28;20557;-65
2022/03/28 03:10:33;;;;;;;33.27;19.77;;;;;;;;;;5056021;28;20175;-65
2022/03/28 03:12:59;;;;;;;38.07;21.20;;;;;;;;;;5055894;28;20193;-65
2022/03/28 03:15:25;;;;;;;36.00;20.17;;;;;;;;;;5055828;28;20285;-65
2022/03/28 03:17:51;;;;;;;33.83;20.93;;;;;;;;;;5056007;28;20178;-65
2022/03/28 03:20:17;;;;;;;32.60;20.30;;;;;;;;;;5037748;28;20690;-65
2022/03/28 03:22:43;;;;;;;33.93;20.47;;;;;;;;;;5055680;28;20551;-65
2022/03/28 03:25:09;;;;;;;33.70;19.47;;;;;;;;;;5037648;28;20174;-65
2022/03/28 03:27:37;;;;;;;32.90;19.53;;;;;;;;;;5037930;28;20189;-65
2022/03/28 03:30:05;;;;;;;33.10;20.07;;;;;;;;;;5055949;28;20182;-65
2022/03/28 03:32:31;;;;;;;33.83;19.77;;;;;;;;;;5037506;28;20682;-65
2022/03/28 03:34:57;;;;;;;31.73;20.30;;;;;;;;;;5037716;28;20232;-65
2022/03/28 03:37:23;;;;;;;36.73;20.73;;;;;;;;;;5055414;28;20252;-65
2022/03/28 03:39:49;;;;;;;34.47;20.00;;;;;;;;;;5055396;28;20257;-65
2022/03/28 03:42:15;;;;;;;35.33;20.00;;;;;;;;;;5037495;28;20202;-65
2022/03/28 03:44:41;;;;;;;36.17;20.33;;;;;;;;;;5055529;28;20182;-65
2022/03/28 03:47:07;;;;;;;35.60;20.53;;;;;;;;;;5037346;28;20190;-65
2022/03/28 03:49:33;;;;;;;37.23;21.17;;;;;;;;;;5055175;28;20552;-65
2022/03/28 03:51:59;;;;;;;36.90;20.47;;;;;;;;;;5055464;28;20622;-65
2022/03/28 03:54:25;;;;;;;35.47;19.27;;;;;;;;;;5037252;28;20205;-65
2022/03/28 03:56:51;;;;;;;40.03;20.57;;;;;;;;;;5055057;28;20178;-65
2022/03/28 03:59:17;;;;;;;37.63;20.73;;;;;;;;;;5055409;28;20186;-65
2022/03/28 04:01:43;;;;;;;39.30;21.00;;;;;;;;;;5055016;28;20195;-65
2022/03/28 04:04:12;;;;;;;33.57;20.93;;;;;;;;;;5055500;28;20202;-65
2022/03/28 04:06:38;;;;;;;38.57;21.27;;;;;;;;;;5055695;28;20194;-65
2022/03/28 04:09:04;;;;;;;31.97;19.70;;;;;;;;;;5055122;28;20175;-65
2022/03/28 04:11:30;;;;;;;36.53;21.67;;;;;;;;;;5055397;28;20187;-65
2022/03/28 04:13:57;;;;;;;33.37;20.57;;;;;;;;;;5055549;28;20182;-65
2022/03/28 04:16:23;;;;;;;36.53;20.77;;;;;;;;;;5055536;28;20257;-65
2022/03/28 04:18:49;;;;;;;35.10;20.23;;;;;;;;;;5055011;28;20253;-65
2022/03/28 04:21:15;;;;;;;38.63;20.73;;;;;;;;;;5054669;28;20210;-65
2022/03/28 04:23:41;;;;;;;38.63;22.50;;;;;;;;;;5036660;28;20214;-65
2022/03/28 04:26:07;;;;;;;37.17;21.77;;;;;;;;;;5036640;28;20178;-65
2022/03/28 04:28:33;;;;;;;37.33;20.70;;;;;;;;;;5054410;28;20662;-66
2022/03/28 04:30:59;;;;;;;40.43;21.93;;;;;;;;;;5054419;28;20240;-65
2022/03/28 04:33:25;;;;;;;40.77;22.73;;;;;;;;;;5054234;28;20228;-65
2022/03/28 04:35:51;;;;;;;44.03;23.03;;;;;;;;;;5054274;28;20186;-66
2022/03/28 04:38:17;;;;;;;35.23;21.30;;;;;;;;;;5053695;28;20175;-66
2022/03/28 04:40:43;;;;;;;36.33;21.50;;;;;;;;;;5054427;28;20289;-66
2022/03/28 04:43:09;;;;;;;36.73;22.33;;;;;;;;;;5054213;28;20222;-65
2022/03/28 04:45:36;;;;;;;42.70;22.30;;;;;;;;;;5036283;28;20183;-65
2022/03/28 04:48:02;;;;;;;39.67;23.50;;;;;;;;;;5054328;28;20228;-65
2022/03/28 04:50:28;;;;;;;42.90;26.13;;;;;;;;;;5054065;28;20247;-66
2022/03/28 04:52:55;;;;;;;38.23;23.33;;;;;;;;;;5054276;28;20620;-66
2022/03/28 04:55:21;;;;;;;44.70;23.67;;;;;;;;;;5036043;28;20314;-65
2022/03/28 04:57:47;;;;;;;42.67;23.93;;;;;;;;;;5036063;28;20561;-65
2022/03/28 05:00:13;;;;;;;42.60;22.70;;;;;;;;;;5054360;28;20253;-65
2022/03/28 05:02:39;;;;;;;46.17;24.17;;;;;;;;;;5053938;28;20621;-65
2022/03/28 05:05:05;;;;;;;36.53;22.57;;;;;;;;;;5053785;28;20549;-65
2022/03/28 05:07:32;;;;;;;43.97;22.87;;;;;;;;;;5035671;28;20231;-65
2022/03/28 05:10:01;;;;;;;44.77;24.50;;;;;;;;;;5053550;28;20647;-65
2022/03/28 05:12:27;;;;;;;43.60;23.00;;;;;;;;;;5053371;28;20612;-65
2022/03/28 05:14:54;;;;;;;39.30;22.23;;;;;;;;;;5035574;28;20182;-65
2022/03/28 05:17:24;;;;;;;39.90;22.27;;;;;;;;;;5035450;28;20269;-65
2022/03/28 05:19:50;;;;;;;44.37;23.43;;;;;;;;;;5053424;28;20178;-65
2022/03/28 05:22:17;;;;;;;39.93;24.00;;;;;;;;;;5053280;28;20294;-65
2022/03/28 05:24:43;;;;;;;44.47;22.97;;;;;;;;;;5053861;28;20193;-65
2022/03/28 05:27:08;;;;;;;40.70;22.73;;;;;;;;;;5053319;28;20642;-65
2022/03/28 05:29:34;;;;;;;38.40;22.63;;;;;;;;;;5035443;28;20179;-65
2022/03/28 05:32:04;;;;;;;45.53;22.87;;;;;;;;;;5053162;28;20293;-65
2022/03/28 05:34:31;;;;;;;39.63;22.47;;;;;;;;;;5053281;28;20281;-65
2022/03/28 05:37:00;;;;;;;41.33;22.63;;;;;;;;;;5035435;28;20556;-65
2022/03/28 05:39:27;;;;;;;44.70;23.47;;;;;;;;;;5053230;28;20261;-65
2022/03/28 05:41:53;;;;;;;41.97;23.43;;;;;;;;;;5035129;28;20218;-65
2022/03/28 05:44:20;;;;;;;47.60;23.80;;;;;;;;;;5053041;28;20171;-65
2022/03/28 05:46:48;;;;;;;44.60;24.10;;;;;;;;;;5053496;28;20653;-65
2022/03/28 05:49:14;;;;;;;42.23;22.47;;;;;;;;;;5053412;28;20266;-65
2022/03/28 05:51:40;;;;;;;42.67;23.83;;;;;;;;;;5053313;28;20205;-65
2022/03/28 05:54:05;;;;;;;44.73;23.30;;;;;;;;;;5035499;28;20259;-65
2022/03/28 05:56:31;;;;;;;42.50;23.10;;;;;;;;;;5035447;28;20186;-65
2022/03/28 05:58:57;;;;;;;49.23;24.37;;;;;;;;;;5053319;28;20174;-65
2022/03/28 06:01:23;;;;;;;42.47;23.70;;;;;;;;;;5053309;28;20288;-65
2022/03/28 06:03:50;;;;;;;48.63;26.10;;;;;;;;;;5053127;28;20686;-65
2022/03/28 06:06:16;;;;;;;39.37;22.73;;;;;;;;;;5035158;28;20702;-65
2022/03/28 06:08:42;;;;;;;40.33;22.53;;;;;;;;;;5035050;28;20183;-65
2022/03/28 06:11:08;;;;;;;40.37;22.83;;;;;;;;;;5035210;28;20182;-65
2022/03/28 06:13:34;;;;;;;41.33;22.37;;;;;;;;;;5052896;28;20222;-65
2022/03/28 06:16:00;;;;;;;44.90;24.07;;;;;;;;;;5053290;28;20241;-65
2022/03/28 06:18:26;;;;;;;39.83;22.23;;;;;;;;;;5035204;28;20182;-65
2022/03/28 06:20:53;;;;;;;36.43;21.70;;;;;;;;;;5053026;28;20206;-65
2022/03/28 06:23:18;;;;;;;42.87;22.07;;;;;;;;;;5052878;28;20213;-65
2022/03/28 06:25:44;;;;;;;43.27;21.77;;;;;;;;;;5035029;28;20647;-65
2022/03/28 06:28:12;;;;;;;40.90;22.63;;;;;;;;;;5053164;28;20171;-65
2022/03/28 06:30:38;;;;;;;41.03;21.67;;;;;;;;;;5035056;28;20182;-65
2022/03/28 06:33:04;;;;;;;40.70;22.30;;;;;;;;;;5052812;28;20198;-65
2022/03/28 06:35:30;;;;;;;43.07;21.37;;;;;;;;;;5052774;28;20257;-66
2022/03/28 06:37:56;;;;;;;35.73;21.87;;;;;;;;;;5052919;28;20728;-65
2022/03/28 06:40:23;;;;;;;44.97;22.17;;;;;;;;;;5034912;28;20582;-68
2022/03/28 06:42:49;;;;;;;41.13;22.67;;;;;;;;;;5034970;28;20201;-66
2022/03/28 06:45:15;;;;;;;37.17;20.77;;;;;;;;;;5034967;28;20174;-66
2022/03/28 06:47:42;;;;;;;33.13;22.43;;;;;;;;;;5052625;28;20178;-66
2022/03/28 06:50:09;;;;;;;40.90;21.93;;;;;;;;;;5035095;28;20582;-67
2022/03/28 06:52:35;;;;;;;38.77;21.63;;;;;;;;;;5034801;28;20214;-66
2022/03/28 06:55:02;;;;;;;35.83;21.83;;;;;;;;;;5052677;28;20553;-66
2022/03/28 06:57:28;;;;;;;40.70;23.73;;;;;;;;;;5052869;28;20185;-66
2022/03/28 06:59:54;;;;;;;40.57;22.57;;;;;;;;;;5052833;28;20265;-65
2022/03/28 07:02:20;;;;;;;37.33;22.33;;;;;;;;;;5055838;28;20685;-65
2022/03/28 07:04:46;;;;;;;37.73;24.23;;;;;;;;;;5038178;28;20190;-65
2022/03/28 07:07:12;;;;;;;35.83;22.20;;;;;;;;;;5056458;28;20228;-66
2022/03/28 07:09:38;;;;;;;43.33;22.53;;;;;;;;;;5056058;28;20170;-65
2022/03/28 07:12:05;;;;;;;55.07;33.37;;;;;;;;;;5056064;28;20217;-66
2022/03/28 07:14:32;;;;;;;54.50;35.53;;;;;;;;;;5056085;28;20265;-65
2022/03/28 07:16:58;;;;;;;40.13;23.40;;;;;;;;;;5078901;22;20254;-63
2022/03/28 07:19:24;;;;;;;42.33;23.23;;;;;;;;;;5056092;28;20623;-63
2022/03/28 07:21:50;;;;;;;36.77;23.33;;;;;;;;;;5055972;28;20194;-63
2022/03/28 07:24:17;;;;;;;37.37;21.17;;;;;;;;;;5037898;28;20175;-64
2022/03/28 07:26:45;;;;;;;38.97;21.57;;;;;;;;;;5037727;28;20206;-64
2022/03/28 07:29:11;;;;;;;39.53;23.03;;;;;;;;;;5037899;28;20181;-64
2022/03/28 07:31:39;;;;;;;36.60;22.73;;;;;;;;;;5055621;28;20202;-64
2022/03/28 07:34:39;;;;;;;36.57;21.87;;;;;;;;;;5055553;28;20174;-64
2022/03/28 07:36:59;;;;;;;44.30;22.43;;;;;;;;;;5052538;28;20727;-64
2022/03/28 07:39:25;;;;;;;40.20;22.20;;;;;;;;;;5055485;28;20209;-64
2022/03/28 07:41:51;;;;;;;37.23;20.37;;;;;;;;;;5037629;28;20582;-64
2022/03/28 07:44:18;;;;;;;30.17;20.43;;;;;;;;;;5055321;28;20290;-64
2022/03/28 07:46:44;;;;;;;28.10;19.80;;;;;;;;;;5055117;28;20554;-64
2022/03/28 07:49:10;;;;;;;30.97;20.70;;;;;;;;;;5055503;28;20653;-65
2022/03/28 07:51:36;;;;;;;30.43;20.60;;;;;;;;;;5037850;28;20178;-64
2022/03/28 07:54:02;;;;;;;32.57;22.73;;;;;;;;;;5055209;28;20187;-64
2022/03/28 07:56:29;;;;;;;33.57;23.00;;;;;;;;;;5055150;28;20190;-64
2022/03/28 07:58:54;;;;;;;33.83;22.77;;;;;;;;;;5055604;28;20705;-64
2022/03/28 08:01:20;;;;;;;32.50;22.63;;;;;;;;;;5037173;28;20194;-63
2022/03/28 08:03:46;;;;;;;34.37;24.57;;;;;;;;;;5054951;28;20174;-64
2022/03/28 08:06:12;;;;;;;41.20;27.10;;;;;;;;;;5054987;28;20598;-63
2022/03/28 08:08:38;;;;;;;40.93;26.20;;;;;;;;;;5054901;28;20201;-63
2022/03/28 08:11:09;;;;;;;39.77;25.73;;;;;;;;;;5054909;28;20206;-64
2022/03/28 08:13:36;;;;;;;40.27;25.90;;;;;;;;;;5054796;28;20179;-63
2022/03/28 08:16:02;;;;;;;42.57;26.70;;;;;;;;;;5036881;28;20213;-63
2022/03/28 08:18:28;;;;;;;44.57;25.40;;;;;;;;;;5054648;28;20242;-63
2022/03/28 08:20:54;;;;;;;40.07;25.27;;;;;;;;;;5054762;28;20208;-63
2022/03/28 08:23:21;;;;;;;36.20;24.97;;;;;;;;;;5055018;28;20190;-63
2022/03/28 08:25:49;;;;;;;40.23;25.20;;;;;;;;;;5036865;28;20174;-63
2022/03/28 08:28:16;;;;;;;36.70;24.63;;;;;;;;;;5054639;28;20218;-63
2022/03/28 08:30:44;;;;;;;37.13;25.77;;;;;;;;;;5036797;28;20179;-64
2022/03/28 08:33:10;;;;;;;40.60;26.50;;;;;;;;;;5036593;28;20273;-64
2022/03/28 08:35:38;;;;;;;37.20;26.57;;;;;;;;;;5036642;28;20529;-64
2022/03/28 08:38:04;;;;;;;40.70;28.23;;;;;;;;;;5054226;28;20198;-63
2022/03/28 08:40:30;;;;;;;40.83;27.47;;;;;;;;;;5054238;28;20316;-62
2022/03/28 08:42:56;;;;;;;48.27;28.33;;;;;;;;;;5054561;28;20204;-63
2022/03/28 08:45:22;;;;;;;37.27;26.67;;;;;;;;;;5054225;28;20272;-63
2022/03/28 08:47:49;;;;;;;36.70;25.53;;;;;;;;;;5054322;28;20633;-63
2022/03/28 08:50:16;;;;;;;36.83;25.37;;;;;;;;;;5054255;28;20174;-63
2022/03/28 08:52:43;;;;;;;35.07;23.63;;;;;;;;;;5054158;28;20171;-63
2022/03/28 08:55:09;;;;;;;39.00;25.37;;;;;;;;;;5054316;28;20174;-64
2022/03/28 08:57:35;;;;;;;37.53;25.77;;;;;;;;;;5054000;28;20201;-62
2022/03/28 09:00:02;;;;;;;41.20;26.30;;;;;;;;;;5054429;28;20187;-62
2022/03/28 09:02:44;;;;;;;38.50;26.70;;;;;;;;;;5053973;28;20537;-62
2022/03/28 09:05:11;;;;;;;41.77;27.13;;;;;;;;;;5053862;28;20150;-62
2022/03/28 09:07:37;;;;;;;37.87;25.70;;;;;;;;;;5053688;28;20655;-62
2022/03/28 09:10:08;;;;;;;36.30;24.63;;;;;;;;;;5053704;28;20171;-62
2022/03/28 09:12:40;;;;;;;41.23;24.97;;;;;;;;;;5035706;28;20593;-62
2022/03/28 09:15:09;;;;;;;35.77;24.87;;;;;;;;;;5036054;28;20646;-63
2022/03/28 09:17:35;;;;;;;36.13;24.97;;;;;;;;;;5053460;28;20266;-63
2022/03/28 09:20:05;;;;;;;39.77;25.47;;;;;;;;;;5035660;28;20186;-64
2022/03/28 09:22:32;;;;;;;32.10;23.13;;;;;;;;;;5035591;28;20692;-62
2022/03/28 09:24:59;;;;;;;37.07;24.37;;;;;;;;;;5035235;28;20557;-63
2022/03/28 09:27:26;;;;;;;37.57;25.27;;;;;;;;;;5053879;28;20195;-62
2022/03/28 09:30:12;;;;;;;34.53;24.33;;;;;;;;;;5035532;28;20236;-63
2022/03/28 09:32:40;;;;;;;38.80;24.50;;;;;;;;;;5053139;28;20250;-62
2022/03/28 09:35:09;;;;;;;37.37;25.73;;;;;;;;;;5035679;28;20216;-63
2022/03/28 09:37:47;;;;;;;36.67;24.37;;;;;;;;;;5035536;28;20262;-62
2022/03/28 09:40:23;;;;;;;37.90;25.43;;;;;;;;;;5035479;28;20193;-62
2022/03/28 09:42:50;;;;;;;37.10;25.43;;;;;;;;;;5053321;28;20181;-62
2022/03/28 09:45:20;;;;;;;35.83;24.80;;;;;;;;;;5035548;28;20174;-62
2022/03/28 09:47:55;;;;;;;32.50;23.07;;;;;;;;;;5053701;28;20696;-61
2022/03/28 09:50:28;;;;;;;34.37;24.13;;;;;;;;;;5053147;28;20228;-62
2022/03/28 09:52:54;;;;;;;35.37;24.47;;;;;;;;;;5053122;28;20178;-64
2022/03/28 09:55:20;;;;;;;36.47;23.20;;;;;;;;;;5053146;28;20189;-63
2022/03/28 09:57:46;;;;;;;30.37;21.83;;;;;;;;;;5035119;28;20317;-62
2022/03/28 10:00:19;;;;;;;34.40;22.30;;;;;;;;;;5052983;28;20174;-63
2022/03/28 10:02:47;;;;;;;31.80;22.67;;;;;;;;;;5053392;28;20170;-64
2022/03/28 10:05:14;;;;;;;34.03;24.30;;;;;;;;;;5053019;28;20689;-63
2022/03/28 10:07:40;;;;;;;36.17;24.93;;;;;;;;;;5053256;28;20256;-63
2022/03/28 10:10:07;;;;;;;35.07;25.30;;;;;;;;;;5053324;28;20647;-63
2022/03/28 10:12:33;;;;;;;35.47;25.53;;;;;;;;;;5053057;28;20182;-67
2022/03/28 10:15:01;;;;;;;34.30;23.13;;;;;;;;;;5053689;28;20523;-63
2022/03/28 10:17:28;;;;;;;35.57;24.67;;;;;;;;;;5052825;28;20708;-63
2022/03/28 10:19:54;;;;;;;37.73;25.73;;;;;;;;;;5053183;28;20189;-63
2022/03/28 10:22:32;;;;;;;35.33;24.37;;;;;;;;;;5053491;28;20198;-63
2022/03/28 10:24:59;;;;;;;40.80;25.07;;;;;;;;;;5053180;28;20174;-63
2022/03/28 10:27:26;;;;;;;34.97;24.50;;;;;;;;;;5053133;28;20201;-61
2022/03/28 10:29:53;;;;;;;33.53;24.67;;;;;;;;;;5052971;28;20197;-64
2022/03/28 10:32:23;;;;;;;33.97;23.50;;;;;;;;;;5053170;28;20174;-64
2022/03/28 10:34:53;;;;;;;31.50;23.20;;;;;;;;;;5053290;28;20183;-64
2022/03/28 10:37:34;;;;;;;33.40;23.87;;;;;;;;;;5056314;28;20198;-63
2022/03/28 10:40:13;;;;;;;36.33;25.97;;;;;;;;;;5056929;28;20232;-63
2022/03/28 10:42:45;;;;;;;38.13;25.03;;;;;;;;;;5056953;28;20182;-63
2022/03/28 10:45:12;;;;;;;36.50;24.43;;;;;;;;;;5038800;28;20716;-63
2022/03/28 10:47:45;;;;;;;36.47;23.87;;;;;;;;;;5039008;28;20202;-63
2022/03/28 10:50:12;;;;;;;34.57;24.50;;;;;;;;;;5056487;28;20178;-63
2022/03/28 10:52:38;;;;;;;35.73;24.03;;;;;;;;;;5056667;28;20635;-64
2022/03/28 10:55:09;;;;;;;34.93;24.60;;;;;;;;;;5056204;28;20178;-64
2022/03/28 10:57:36;;;;;;;35.13;24.40;;;;;;;;;;5056868;28;20271;-63
2022/03/28 11:00:10;;;;;;;34.93;24.10;;;;;;;;;;5056421;28;20171;-64
2022/03/28 11:02:36;;;;;;;36.67;24.23;;;;;;;;;;5056227;28;20189;-64
2022/03/28 11:05:07;;;;;;;37.60;25.17;;;;;;;;;;5056356;28;20638;-62
2022/03/28 11:07:34;;;;;;;33.23;24.60;;;;;;;;;;5056132;28;20202;-62
2022/03/28 11:10:01;;;;;;;34.80;25.23;;;;;;;;;;5055941;28;20167;-62
2022/03/28 11:12:38;;;;;;;39.07;26.23;;;;;;;;;;5056135;28;20669;-61
2022/03/28 11:15:18;;;;;;;35.07;23.77;;;;;;;;;;5056026;28;20170;-62
2022/03/28 11:18:04;;;;;;;36.70;25.20;;;;;;;;;;5055999;28;20210;-62
2022/03/28 11:20:52;;;;;;;35.23;24.03;;;;;;;;;;5037813;28;20279;-62
2022/03/28 11:23:19;;;;;;;34.23;23.63;;;;;;;;;;5056548;28;20190;-62
2022/03/28 11:25:51;;;;;;;33.17;22.87;;;;;;;;;;5056284;28;20206;-62
2022/03/28 11:28:19;;;;;;;33.97;22.67;;;;;;;;;;5056823;28;20190;-62
2022/03/28 11:30:45;;;;;;;36.33;24.43;;;;;;;;;;5056167;28;20709;-62
2022/03/28 11:33:12;;;;;;;34.10;22.90;;;;;;;;;;5056252;28;20178;-62
2022/03/28 11:35:39;;;;;;;32.73;22.33;;;;;;;;;;5056100;28;20171;-62
2022/03/28 11:38:05;;;;;;;35.77;23.97;;;;;;;;;;5056040;28;20204;-62
2022/03/28 11:40:38;;;;;;;33.60;22.47;;;;;;;;;;5056609;28;20282;-62
2022/03/28 11:43:04;;;;;;;35.63;22.77;;;;;;;;;;5038542;28;20178;-63
2022/03/28 11:45:31;;;;;;;33.57;24.10;;;;;;;;;;5056951;28;20179;-63
2022/03/28 11:47:59;;;;;;;30.33;21.53;;;;;;;;;;5056054;28;20201;-62
2022/03/28 11:50:28;;;;;;;32.67;23.37;;;;;;;;;;5055815;28;20175;-63
2022/03/28 11:52:54;;;;;;;34.23;23.47;;;;;;;;;;5055327;28;20174;-63
2022/03/28 11:55:24;;;;;;;33.63;23.70;;;;;;;;;;5056076;28;20193;-63
2022/03/28 12:00:36;;;;;;;35.57;22.37;;;;;;;;;;5055782;28;20332;-63
2022/03/28 12:03:03;;;;;;;31.17;21.33;;;;;;;;;;5057121;28;20230;-62
2022/03/28 12:05:36;;;;;;;34.17;22.87;;;;;;;;;;5037769;28;20635;-63
2022/03/28 12:08:08;;;;;;;40.37;23.67;;;;;;;;;;5037166;28;20281;-63
2022/03/28 12:10:36;;;;;;;36.67;21.47;;;;;;;;;;5054950;28;20181;-63
2022/03/28 12:13:04;;;;;;;34.97;23.03;;;;;;;;;;5054971;28;20201;-63
2022/03/28 12:15:31;;;;;;;34.73;22.97;;;;;;;;;;5055283;28;20208;-63
2022/03/28 12:18:01;;;;;;;33.23;22.70;;;;;;;;;;5054813;28;20238;-63
2022/03/28 12:20:28;;;;;;;35.53;22.87;;;;;;;;;;5054791;28;20182;-63
2022/03/28 12:22:55;;;;;;;35.60;23.37;;;;;;;;;;5037498;28;20534;-62
2022/03/28 12:25:32;;;;;;;32.17;22.40;;;;;;;;;;5037586;28;20182;-63
2022/03/28 12:27:59;;;;;;;36.70;23.63;;;;;;;;;;5038529;28;20639;-63
2022/03/28 12:30:30;;;;;;;33.73;23.33;;;;;;;;;;5058872;28;20210;-63
2022/03/28 12:32:56;;;;;;;37.70;24.53;;;;;;;;;;5037779;28;20181;-64
2022/03/28 12:35:23;;;;;;;35.73;23.67;;;;;;;;;;5054514;28;20263;-63
2022/03/28 12:37:59;;;;;;;37.50;23.87;;;;;;;;;;5055079;28;20200;-64
2022/03/28 12:40:29;;;;;;;33.90;20.53;;;;;;;;;;5036631;28;20240;-64
2022/03/28 12:42:55;;;;;;;41.03;23.37;;;;;;;;;;5036465;28;20240;-64
2022/03/28 12:45:25;;;;;;;38.67;23.27;;;;;;;;;;5054384;28;20175;-64
2022/03/28 12:48:06;;;;;;;34.63;24.00;;;;;;;;;;5054631;28;20277;-64
2022/03/28 12:50:32;;;;;;;40.37;23.53;;;;;;;;;;5054279;28;20170;-64
2022/03/28 12:53:18;;;;;;;46.60;28.85;;;;;;;;;;5053524;28;20465;-65
2022/03/28 12:55:45;;;;;;;44.70;27.37;;;;;;;;;;5036296;28;20170;-65
2022/03/28 12:58:12;;;;;;;40.93;24.80;;;;;;;;;;5035314;28;20697;-64
2022/03/28 13:00:38;;;;;;;39.43;25.47;;;;;;;;;;5036023;28;20252;-64
2022/03/28 13:03:06;;;;;;;55.13;29.23;;;;;;;;;;5054410;28;20171;-63
2022/03/28 13:05:34;;;;;;;45.67;27.63;;;;;;;;;;5054039;28;20296;-63
2022/03/28 13:08:06;;;;;;;44.57;26.57;;;;;;;;;;5054034;28;20678;-64
2022/03/28 13:10:33;;;;;;;36.77;24.23;;;;;;;;;;5054072;28;20171;-64
2022/03/28 13:13:00;;;;;;;48.97;27.60;;;;;;;;;;5053930;28;20635;-63
2022/03/28 13:15:30;;;;;;;37.80;24.83;;;;;;;;;;5035936;28;20650;-64
2022/03/28 13:18:07;;;;;;;32.87;22.40;;;;;;;;;;5053616;28;20218;-63
2022/03/28 13:20:34;;;;;;;39.40;24.67;;;;;;;;;;5053627;28;20206;-61
2022/03/28 13:23:01;;;;;;;35.17;23.83;;;;;;;;;;5053786;28;20170;-62
2022/03/28 13:25:27;;;;;;;30.17;21.87;;;;;;;;;;5053665;28;20261;-63
2022/03/28 13:28:08;;;;;;;32.57;21.47;;;;;;;;;;5053393;28;20226;-62
2022/03/28 13:30:47;;;;;;;31.33;21.53;;;;;;;;;;5053499;28;20162;-63
2022/03/28 13:33:14;;;;;;;32.63;21.03;;;;;;;;;;5053483;28;20181;-63
2022/03/28 13:35:41;;;;;;;36.37;21.93;;;;;;;;;;5035647;28;20685;-63
2022/03/28 13:38:08;;;;;;;32.37;21.43;;;;;;;;;;5035388;28;20297;-62
2022/03/28 13:40:35;;;;;;;28.57;21.10;;;;;;;;;;5053502;28;20328;-63
2022/03/28 13:43:01;;;;;;;27.77;19.40;;;;;;;;;;5053251;28;20233;-62
2022/03/28 13:45:29;;;;;;;33.73;22.33;;;;;;;;;;5053537;28;20182;-63
2022/03/28 13:47:56;;;;;;;34.10;22.40;;;;;;;;;;5053137;28;20194;-65
2022/03/28 13:50:22;;;;;;;30.90;21.70;;;;;;;;;;5053130;28;20253;-63
2022/03/28 13:52:49;;;;;;;35.93;23.07;;;;;;;;;;5053771;28;20304;-64
2022/03/28 13:55:17;;;;;;;32.77;21.93;;;;;;;;;;5053447;28;20612;-63
2022/03/28 13:57:43;;;;;;;32.90;21.97;;;;;;;;;;5035302;28;20574;-63
2022/03/28 14:00:10;;;;;;;33.00;20.87;;;;;;;;;;5053557;28;20186;-63
2022/03/28 14:02:36;;;;;;;27.03;21.07;;;;;;;;;;5053457;28;20214;-63
2022/03/28 14:05:03;;;;;;;31.93;22.23;;;;;;;;;;5035599;28;20179;-63
2022/03/28 14:07:28;;;;;;;31.03;22.53;;;;;;;;;;5035681;28;20244;-63
2022/03/28 14:09:54;;;;;;;33.03;22.57;;;;;;;;;;5054951;28;20549;-63
2022/03/28 14:12:20;;;;;;;37.40;22.67;;;;;;;;;;5057629;28;20185;-63
2022/03/28 14:14:46;;;;;;;33.00;22.37;;;;;;;;;;5057929;28;20226;-63
2022/03/28 14:17:13;;;;;;;38.07;23.30;;;;;;;;;;5039662;28;20305;-63
2022/03/28 14:19:39;;;;;;;31.23;22.03;;;;;;;;;;5040106;28;20188;-62